19-22/6/2013, 72 hours of mostly nothing

In two days there has been no conditions and MUF map has been totally empty, today it seems to be a bit better. Instead between Wednesday and Saturday there was almost all the time something going on – but mostly nothing! It was difficult because the direction changed all the time and the MUF was not much over 87.5. Mostly nothing, but if scanning the band continuously it was possible to log many stations, also new ones – mostly from one mast. So between silent periods of 15 minutes something could be heard. And sometimes there were stations only around 92 MHz when the lower band offered nothing. Not enjoyable or easy at all.

The highlights were short RUS opening till 108 MHz in Wednesday, awaited opening to Germany (also 108) in Thursday morning and later in the evening short skip conditions to Denmark and the Benelux. Unfortunately it happened in Midsummer evening, when everyone is celebrating the longest day of the year (24 hours of light in North Finland!). So no-one send me an alarm message and I realized the conditions by checking the band – unfortunately too late when the best skips were gone. No Denmark heard this time! I have heard it only once, because it is too “close” for Central Finland (1000km). I missed also nighttime conditions to Iceland on 21 and 22 June. Above please find my log for these 72 hours. Totally 12 countries identified. UNID’s from Greece (96.3), many from Turkey and also Norwegian heard! There are several hours when I was not able to check conditions, because doing other things.

Date Time Frequency Country code Station Transmiter Distance (km) Power Polarization

2013-06-19 Es 1317 90.10 UKR Radio Melodiya, Dnipropetrovsk (DP) 1670 1.5 v
2013-06-19 Es 1331 90.40 UKR UR 1 Persha Prog., Sevastopol/RTPTS ARK (KR) 2059 3
2013-06-19 Es 1356 89.00 RUS Yumor FM, Goryachiy Klyuch (KDA) Network ID 2173
2013-06-19 Es 1406 90.40 UKR Retro FM, Mariupol/DFKRRT (DO) Local reclam 1873 3
2013-06-19 Es 1417 91.50 UKR Lyuks FM, Simferopol/vul. Krylova, 161 (KR) 2033 1.5
2013-06-19 Es 1446-1520 89.50 ROU Radio Braşov Special, Săcele (BV) 1877 0.04 v
2013-06-19 Es 1455 89.00 ROU Radio ZU, Bucureşti (BU) PI:E2AA PS:Radio_ZU 2009 3 v
2013-06-19 Es 1457 91.70 BUL BNR Radio Burgas, Tsarevo (bur) PS:_BURGAS_ 2272 2.2 v
2013-06-19 Es 1500 91.70 ROU National FM, Bucureşti (BU) 2009 1 v
2013-06-19 Es 1505-1508 90.30 BUL Radio 1, Veliko Tărnovo/RPTS Rezonans (vlt) 2157 0.5 v
2013-06-19 Es 1527 87.80 ROU Radio Braşov, Braşov / Tâmpa (BV) 1875 0.04 v
2013-06-19 Es 1603 90.30 UKR Nashe Radio, Sumy/SFKRRT, vul. Skryabina, 3 (SU) 1403 3
2013-06-19 Es 1613 89.00 RUS Yumor FM, Goryachiy Klyuch (KDA) Local reclam for 89.0 2173
2013-06-19 Es 1616 90.40 UKR Retro FM, Mariupol/DFKRRT (DO) Local reclam 1873 3
2013-06-19 Es 1622 107.70 UKR Hit FM, Vinohradiv (ZK) tentative, “radiohiti” 1603 0.05
2013-06-19 Es 1625 90.60 RUS NRJ, Krasnodar (KDA) Network ID 2126 4 v
2013-06-19 Es 1627 91.20 RUS Militseskaya Volna, Kanevskaja (KD) Network ID
2013-06-19 Es 1630 106.50 RUS Yumor FM, Bryansk (BRY) not 100%, unclear ID 1154 3 v
2013-06-19 Es 1731 91.00 UKR Gala Radio, Odesa/OORTPTS (OD) 1815 3.02 h
2013-06-19 Es 1739 88.50 ROU Kiss FM, Vaslui (VS) PI:515A PS:KISS_FM_ 1768 2 h
2013-06-19 Es 1745 90.20 KOS Radio K4 Shqip, Goleš (Kos) 2235
2013-06-19 Es 1752 91.80 I RDS – Radio Dimensione Suono TN or BZ-tx. 2066 v
2013-06-19 Es 1757 88.50 ROU Kiss FM, Vaslui (VS) 1768 2 h
2013-06-20 Es 0712 88.20 CZE Radio Evropa 2, Praha/Petřín (PR) 1535 5 c
2013-06-20 Es 0714 88.70 D Bayern 2, Grünten (Allgäu) (bay) PS:Bayern_2 1911 100 h
2013-06-20 Es 0716 96.10 D Bayern 2, Hühnerberg (bay) PS:Bayern_2 1776 25 h
2013-06-20 Es 0718 96.30 D Funkhaus Europa, Berlin/Scholzplatz (brb) 1325 80 h
2013-06-20 Es 0718 96.40 D vilradio premium musik, Fürth/Maxstraße (bay) 1697 1 h
2013-06-20 Es 0720 95.90 CZE ČRo Radiožurnál, Liberec/Ještěd (LI) PS:R-ZURNAL 1453 20 h
2013-06-20 Es 0722 94.80 D Bayern 1, Bamberg/Geisberg (bay) NO ID, =93,5 1653 25 h
2013-06-20 Es 0722 93.50 D Bayern 1, Coburg/Eckardtsberg (bay) NO ID, =94.8 1619 5 h
2013-06-20 Es 0726 94.90 D SWR2, Waldburg (bwü) PS:__SWR2__ 1907 60 h
2013-06-20 Es 0727 100.50 D Vogtland Radio, Reichenbach (sac) No ID, spot Vogtland 1546 1 h
2013-06-20 Es 0728 100.30 D Deutschlandfunk (DLF), Ochsenkopf (bay) PS:__DLF___ 1615 100 h
2013-06-20 Es 0729 101.80 D Radio 7, Ulm/Ermingen (bwü) 1840 10 h
2013-06-20 Es 0730 0733 91.40 D Bayern 1 Franken, Büttelberg (bay) 1722 25 h
2013-06-20 Es 0734 96.30 D Bayern 3, Kreuzberg (Rhön) (bay) 1642 100 h
2013-06-20 Es 0739 100.40 D Radio Regenbogen, Hornisgrinde/SWR (bwü) 1875 80 h
2013-06-20 Es 0746 90.60 D hr1, Hardberg (hes) No ID, “Hessentag” 1763 50 h
2013-06-20 Es 0752 93.10 D Bayern 2, Kreuzberg (Rhön) (bay) PS:Bayern_2 1642 100 h
2013-06-20 Es 0756 102.80 D Radio Regenbogen, Heidelberg (bwü) No ID= 100.4 1779 50 h
2013-06-20 Es 0757 101.40 F France Bleu Alsace, Strasbourg/TDF Nordheim (67) 1897 48 h
2013-06-20 Es 0759 103.10 D RPR 1., Bornberg (rlp) 1806 25 h
2013-06-20 Es 0801 102.70 F Radio Mélodie, Sarreguemines/Nousseviller (57) 1868 1 v
2013-06-20 Es 0805 107.60 D big fm (Rheinland-Pfalz), Bornberg (rlp) 1806 25 h
2013-06-20 Es 0809 105.60 D SWR4 Rheinland-Pfalz, Donnersberg (rlp) No ID, traffic 1786 60 h
2013-06-20 Es 0810 88.00 D SR 1 Europawelle, Göttelborner Höhe (saa) 1847 100 h
2013-06-20 Es 0821 87.80 F Radio Star, Belfort/Towercast (90) 2017 0.5 v
2013-06-20 Es 0825 87.80 F France Bleu Bourgogne, Troyes (10) PS:BLEUBOUR 2075 60 v
2013-06-20 Es 0827 87.80 CZE Rádio Blaník, Praha/spalovna Malešice (PR) 1532 1 v
2013-06-20 Es 0832 89.30 D hr3, Großer Feldberg (Taunus)/hr (hes) 1708 100 h
2013-06-20 Es 0836 88.90 LUX RTL Radio Lëtzebuerg, Dudelange/Ginsterberg (gld) 1870 100 h
2013-06-20 Es 0837 90.10 BEL Radio 700, Elsenborn/Herzebösch (wal-lge) 1772 1 v
2013-06-20 Es 0838 89.20 F Nostalgie, Montbard/Les Justices (21) 2109 1 v
2013-06-20 Es 0844 89.10 BEL 7 FM, Bastogne/Rue de Wiltz (wal-lux) 1834 1 v
2013-06-20 Es 0849 88.80 F Virgin Radio, Reims/Moulin-de-la-Housse (51) 1970 2 v
2013-06-20 Es 0856 90.20 F NRJ, Thionville/le Val Marie (57) or (77)-tx. 1877 1 v
2013-06-20 Es 0904 89.10 I RTL 102.5, Pellegrino Parmense/Monte Canate (pr) 2210 v
2013-06-20 Es 0912 88.40 F Horizon, Corbeil-Essonnes/Hauts Cornus (91) 2095 2 v
2013-06-20 Es 0914 89.10 I RTL 102.5, Pellegrino Parmense/Monte Canate (pr) RTL102.5 2210 v
2013-06-20 Es 0915 90.20 I Radio Maria, Serramazzoni/Monte Faeto (mo) PS:R.MARIA_ 2220 5 v
2013-06-20 Es 0916 89.20 I RMC – Radio Monte Carlo, Serramazzoni (mo) PS:_RMC_1_ 2220 v
2013-06-20 Es 0918 89.00 I RAI Radio2, Monte Venda (RAI) (pd) PS:__RAI___ 2103 150 c
2013-06-20 Es 0919 89.50 I RAI Radio1, Bologna/Colle Barbiano (bo) PS:__RAI___ 2201 60 h
2013-06-20 Es 0919 90.10 I Ciao Radio, Pianoro/Monte Calvo (bo) No ID spot for Pianoro 2204 v
2013-06-20 Es 0920 91.20 I Rete Alfa, Ferrara/Via Aranova (fe) No ID, spots for Ferrara 2157 2 v
2013-06-20 Es 0920 91.20 I R101, Lesignano de Bagni (pr) PS:_R_101__ 2216 20 v
2013-06-20 Es 0930 89.00 I Radio Italia Solo Musica Italiana, Monte Mezzocorona (tn) 2025 v
2013-06-20 Es 1514 93.50 G BBC Radio 4 FM, Wrotham (EN-KNT) PS:BBC_R4__ 1948 250 m
2013-06-20 Es 1515 95.80 G Capital Radio, London/Croydon TV Tower (EN-GTL) 1958 4 m
2013-06-20 Es 1515 96.10 G BBC Solent 96.1, Rowridge (EN-IOW) 2078 10 m
2013-06-20 Es 1517 94.90 BEL BRF 1, Sankt Vith/Recht (wal-lge) 1790 10 v
2013-06-21 Es 1844 90.60 D hr1, Hardberg (hes) 1763 50 h
2013-06-21 Es 1844 90.20 D MDR JUMP, Inselsberg (thü) PS:MDR_JUMP 1578 100 h
2013-06-21 Es 1846 92.70 D hr3, Hardberg (hes) 1763 50 h
2013-06-21 Es 1853 89.70 G BBC Radio 2, Tacolneston (EN-NFK) PS:BBC_R2__ 1810 250 m
2013-06-21 Es 1933 89.70 UKR Radio Europa Plus, Simferopol (KR)
2013-06-21 Es 1957 91.70 ROU RFI Romania, Cluj-Napoca/Feleac (CJ) 1759 30 h
2013-06-21 Es 2021 89.00 ROU Radio ZU, Bucureşti (BU) 2009 3 v
2013-06-21 Es 2028 89.60 ROU Radio Reîntregirea, Alba Iulia (AB) PS:REINTRE- 1831 0.1 v
2013-06-22 Es 0900 90.80 UKR Stylnoye radio Perets FM, Luhansk/hotel Arena (LU) 1769 3 v
2013-06-22 Es 0901 91.20 RUS Yumor FM, Rostov-na-Donu (ROS) Network ID 1915 2 v
2013-06-22 Es 0909 96.10 UKR Lyuks FM, Donetsk/DFKRRT, vul. Kujbysheva, 61 (DO) 1786 3
2013-06-22 Es 0938 88.50 RUS Elit Radio, Kamensk-Shakhtinskiy (ROS) Local reclam 1824 0.165 v

Audio of some stations can be heard by clicking station name. And again same visually!

19-22062013

Please wait...

JMN

27 vuotias humanistinretale. Kädetön kaikessa mikä liittyy tekniikkaan, mutta innostus sitäkin suurempi. Erehtymällä oppii ja yrittämällä kuulee.